Time;durP1;ratioP1;P1;durP2;ratioP2;P2;SDS_P1;SDS_P2;PMS_P1;PMS_P2;Temp;Humidity;BMP_temperature;BMP_pressure;BME280_temperature;BME280_humidity;BME280_pressure;Samples;Min_cycle;Max_cycle;Signal;HPM_P1;HPM_P2
2023/12/13 00:00:33;;;;;;;;;;;;;;;;;;5107194;28;19931;-52
2023/12/13 00:03:01;;;;;;;;;;;;;;;;;;5107595;28;20040;-51
2023/12/13 00:05:27;;;;;;;;;;;;;;;;;;5107182;28;19932;-50
2023/12/13 00:07:53;;;;;;;;;;;;;;;;;;5106362;28;19924;-49
2023/12/13 00:10:20;;;;;;;;;;;;;;;;;;5106147;28;19931;-50
2023/12/13 00:12:46;;;;;;;;;;;;;;;;;;5106943;28;19931;-51
2023/12/13 00:15:12;;;;;;;;;;;;;;;;;;5106053;28;20040;-50
2023/12/13 00:17:38;;;;;;;;;;;;;;;;;;5106771;28;19931;-52
2023/12/13 00:20:05;;;;;;;;;;;;;;;;;;5106514;28;20360;-51
2023/12/13 00:22:31;;;;;;;;;;;;;;;;;;5106434;28;19936;-52
2023/12/13 00:24:57;;;;;;;;;;;;;;;;;;5106816;28;19928;-52
2023/12/13 00:27:23;;;;;;;;;;;;;;;;;;5107215;28;20575;-51
2023/12/13 00:29:50;;;;;;;;;;;;;;;;;;5106617;28;20175;-52
2023/12/13 00:32:16;;;;;;;;;;;;;;;;;;5106804;28;19931;-51
2023/12/13 00:34:42;;;;;;;;;;;;;;;;;;5106454;28;19924;-50
2023/12/13 00:37:08;;;;;;;;;;;;;;;;;;5106987;28;19954;-49
2023/12/13 00:39:34;;;;;;;;;;;;;;;;;;5106208;28;19924;-50
2023/12/13 00:42:00;;;;;;;;;;;;;;;;;;5106173;28;19924;-50
2023/12/13 00:44:26;;;;;;;;;;;;;;;;;;5106526;28;19951;-50
2023/12/13 00:46:53;;;;;;;;;;;;;;;;;;5106099;28;20497;-52
2023/12/13 00:49:20;;;;;;;;;;;;;;;;;;5106343;28;19924;-51
2023/12/13 00:51:46;;;;;;;;;;;;;;;;;;5106495;28;20300;-50
2023/12/13 00:54:12;;;;;;;;;;;;;;;;;;5106323;28;20429;-52
2023/12/13 00:56:38;;;;;;;;;;;;;;;;;;5106758;28;20000;-51
2023/12/13 00:59:04;;;;;;;;;;;;;;;;;;5106729;28;19924;-52
2023/12/13 01:01:31;;;;;;;;;;;;;;;;;;5110436;28;19927;-52
2023/12/13 01:03:57;;;;;;;;;;;;;;;;;;5110054;28;20256;-52
2023/12/13 01:06:23;;;;;;;;;;;;;;;;;;5110183;28;20377;-51
2023/12/13 01:08:49;;;;;;;;;;;;;;;;;;5109751;28;20407;-52
2023/12/13 01:11:15;;;;;;;;;;;;;;;;;;5110078;28;19982;-52
2023/12/13 01:13:42;;;;;;;;;;;;;;;;;;5110314;28;19951;-50
2023/12/13 01:16:08;;;;;;;;;;;;;;;;;;5110409;28;21652;-51
2023/12/13 01:18:35;;;;;;;;;;;;;;;;;;5110564;28;19955;-52
2023/12/13 01:21:01;;;;;;;;;;;;;;;;;;5110011;28;19927;-50
2023/12/13 01:23:28;;;;;;;;;;;;;;;;;;5110315;28;19949;-52
2023/12/13 01:25:54;;;;;;;;;;;;;;;;;;5110537;28;19924;-51
2023/12/13 01:28:20;;;;;;;;;;;;;;;;;;5110174;28;20288;-51
2023/12/13 01:30:46;;;;;;;;;;;;;;;;;;5109684;28;19963;-50
2023/12/13 01:33:13;;;;;;;;;;;;;;;;;;5109820;28;20335;-51
2023/12/13 01:35:39;;;;;;;;;;;;;;;;;;5110562;28;20375;-50
2023/12/13 01:38:05;;;;;;;;;;;;;;;;;;5110299;28;20422;-52
2023/12/13 01:40:31;;;;;;;;;;;;;;;;;;5109882;28;19924;-51
2023/12/13 01:42:57;;;;;;;;;;;;;;;;;;5109970;28;19932;-52
2023/12/13 01:45:23;;;;;;;;;;;;;;;;;;5109457;27;19924;-49
2023/12/13 01:47:50;;;;;;;;;;;;;;;;;;5109724;28;19952;-52
2023/12/13 01:50:16;;;;;;;;;;;;;;;;;;5109743;28;19924;-51
2023/12/13 01:52:42;;;;;;;;;;;;;;;;;;5109149;27;20024;-52
2023/12/13 01:55:08;;;;;;;;;;;;;;;;;;5109163;28;19930;-53
2023/12/13 01:57:34;;;;;;;;;;;;;;;;;;5109014;28;19924;-50
2023/12/13 02:00:01;;;;;;;;;;;;;;;;;;5109038;28;19953;-50
2023/12/13 02:02:27;;;;;;;;;;;;;;;;;;5109029;28;20317;-51
2023/12/13 02:04:53;;;;;;;;;;;;;;;;;;5109509;27;19931;-53
2023/12/13 02:07:20;;;;;;;;;;;;;;;;;;5108595;28;19967;-52
2023/12/13 02:09:46;;;;;;;;;;;;;;;;;;5107843;28;19928;-52
2023/12/13 02:12:12;;;;;;;;;;;;;;;;;;5107814;28;19924;-52
2023/12/13 02:14:38;;;;;;;;;;;;;;;;;;5108699;28;19976;-52
2023/12/13 02:17:04;;;;;;;;;;;;;;;;;;5109491;28;20375;-50
2023/12/13 02:19:30;;;;;;;;;;;;;;;;;;5109373;28;19924;-52
2023/12/13 02:21:57;;;;;;;;;;;;;;;;;;5108844;28;19939;-52
2023/12/13 02:24:23;;;;;;;;;;;;;;;;;;5109207;28;19989;-52
2023/12/13 02:26:50;;;;;;;;;;;;;;;;;;5109076;28;20389;-52
2023/12/13 02:29:16;;;;;;;;;;;;;;;;;;5108113;28;19959;-52
2023/12/13 02:31:42;;;;;;;;;;;;;;;;;;5108652;28;19924;-50
2023/12/13 02:34:08;;;;;;;;;;;;;;;;;;5108254;28;20290;-50
2023/12/13 02:36:35;;;;;;;;;;;;;;;;;;5108481;28;19931;-51
2023/12/13 02:39:01;;;;;;;;;;;;;;;;;;5108573;28;19927;-51
2023/12/13 02:41:27;;;;;;;;;;;;;;;;;;5108406;28;19931;-51
2023/12/13 02:43:53;;;;;;;;;;;;;;;;;;5108148;28;19963;-52
2023/12/13 02:46:19;;;;;;;;;;;;;;;;;;5108940;28;19959;-52
2023/12/13 02:48:45;;;;;;;;;;;;;;;;;;5108757;27;19936;-51
2023/12/13 02:51:12;;;;;;;;;;;;;;;;;;5107935;27;19928;-52
2023/12/13 02:53:38;;;;;;;;;;;;;;;;;;5108271;28;19982;-52
2023/12/13 02:56:04;;;;;;;;;;;;;;;;;;5108619;28;20393;-50
2023/12/13 02:58:30;;;;;;;;;;;;;;;;;;5108423;28;20501;-50
2023/12/13 03:00:56;;;;;;;;;;;;;;;;;;5107768;28;19927;-51
2023/12/13 03:03:23;;;;;;;;;;;;;;;;;;5108357;28;19923;-49
2023/12/13 03:05:49;;;;;;;;;;;;;;;;;;5108561;28;20018;-52
2023/12/13 03:08:16;;;;;;;;;;;;;;;;;;5108506;28;19923;-48
2023/12/13 03:10:42;;;;;;;;;;;;;;;;;;5108027;28;20230;-52
2023/12/13 03:13:08;;;;;;;;;;;;;;;;;;5108552;28;19924;-52
2023/12/13 03:15:34;;;;;;;;;;;;;;;;;;5107626;28;19938;-52
2023/12/13 03:18:01;;;;;;;;;;;;;;;;;;5108472;28;19924;-52
2023/12/13 03:20:27;;;;;;;;;;;;;;;;;;5107524;28;20019;-51
2023/12/13 03:22:53;;;;;;;;;;;;;;;;;;5107022;28;19927;-52
2023/12/13 03:25:19;;;;;;;;;;;;;;;;;;5107087;28;19930;-52
2023/12/13 03:27:46;;;;;;;;;;;;;;;;;;5107633;28;19932;-51
2023/12/13 03:30:12;;;;;;;;;;;;;;;;;;5107175;28;20359;-52
2023/12/13 03:32:39;;;;;;;;;;;;;;;;;;5107441;28;20501;-51
2023/12/13 03:35:05;;;;;;;;;;;;;;;;;;5107431;28;19924;-51
2023/12/13 03:37:31;;;;;;;;;;;;;;;;;;5108349;27;19932;-51
2023/12/13 03:39:58;;;;;;;;;;;;;;;;;;5107016;28;19954;-52
2023/12/13 03:42:24;;;;;;;;;;;;;;;;;;5108048;28;19927;-51
2023/12/13 03:44:50;;;;;;;;;;;;;;;;;;5107010;28;19928;-52
2023/12/13 03:47:17;;;;;;;;;;;;;;;;;;5107639;28;19969;-52
2023/12/13 03:49:43;;;;;;;;;;;;;;;;;;5107296;28;19934;-51
2023/12/13 03:52:10;;;;;;;;;;;;;;;;;;5107048;28;19997;-50
2023/12/13 03:54:36;;;;;;;;;;;;;;;;;;5107375;28;19930;-52
2023/12/13 03:57:02;;;;;;;;;;;;;;;;;;5107335;27;20012;-52
2023/12/13 03:59:29;;;;;;;;;;;;;;;;;;5107722;28;19974;-50
2023/12/13 04:01:55;;;;;;;;;;;;;;;;;;5107385;28;19967;-52
2023/12/13 04:04:21;;;;;;;;;;;;;;;;;;5107701;28;19932;-51
2023/12/13 04:06:47;;;;;;;;;;;;;;;;;;5107388;28;20378;-52
2023/12/13 04:09:13;;;;;;;;;;;;;;;;;;5106528;28;19923;-52
2023/12/13 04:11:40;;;;;;;;;;;;;;;;;;5106688;28;19954;-52
2023/12/13 04:14:06;;;;;;;;;;;;;;;;;;5105478;28;20594;-51
2023/12/13 04:16:32;;;;;;;;;;;;;;;;;;5106892;27;19978;-52
2023/12/13 04:18:58;;;;;;;;;;;;;;;;;;5106741;28;19923;-52
2023/12/13 04:21:25;;;;;;;;;;;;;;;;;;5106318;28;19932;-53
2023/12/13 04:23:51;;;;;;;;;;;;;;;;;;5106864;28;19970;-52
2023/12/13 04:26:17;;;;;;;;;;;;;;;;;;5106533;28;19928;-50
2023/12/13 04:28:43;;;;;;;;;;;;;;;;;;5107400;28;20395;-51
2023/12/13 04:31:09;;;;;;;;;;;;;;;;;;5106199;28;19924;-51
2023/12/13 04:33:35;;;;;;;;;;;;;;;;;;5105806;28;20365;-51
2023/12/13 04:36:02;;;;;;;;;;;;;;;;;;5105762;28;19992;-50
2023/12/13 04:38:28;;;;;;;;;;;;;;;;;;5106523;28;19927;-51
2023/12/13 04:40:54;;;;;;;;;;;;;;;;;;5106499;28;19963;-52
2023/12/13 04:43:20;;;;;;;;;;;;;;;;;;5106688;28;19953;-53
2023/12/13 04:45:46;;;;;;;;;;;;;;;;;;5105992;28;20381;-51
2023/12/13 04:48:13;;;;;;;;;;;;;;;;;;5107074;28;20432;-51
2023/12/13 04:50:39;;;;;;;;;;;;;;;;;;5106597;28;19924;-52
2023/12/13 04:53:05;;;;;;;;;;;;;;;;;;5106973;28;19924;-52
2023/12/13 04:55:31;;;;;;;;;;;;;;;;;;5105888;28;19992;-52
2023/12/13 04:57:57;;;;;;;;;;;;;;;;;;5106778;28;19969;-52
2023/12/13 05:00:23;;;;;;;;;;;;;;;;;;5105873;28;20004;-52
2023/12/13 05:02:49;;;;;;;;;;;;;;;;;;5106371;28;20000;-52
2023/12/13 05:05:16;;;;;;;;;;;;;;;;;;5105303;28;20430;-52
2023/12/13 05:07:42;;;;;;;;;;;;;;;;;;5106181;28;20531;-52
2023/12/13 05:10:08;;;;;;;;;;;;;;;;;;5105742;28;19930;-50
2023/12/13 05:12:34;;;;;;;;;;;;;;;;;;5105467;28;19966;-51
2023/12/13 05:15:00;;;;;;;;;;;;;;;;;;5105559;28;20043;-51
2023/12/13 05:17:26;;;;;;;;;;;;;;;;;;5106251;28;19977;-52
2023/12/13 05:19:53;;;;;;;;;;;;;;;;;;5105989;28;19951;-52
2023/12/13 05:22:21;;;;;;;;;;;;;;;;;;5106269;28;20223;-52
2023/12/13 05:24:47;;;;;;;;;;;;;;;;;;5106332;28;20383;-50
2023/12/13 05:27:13;;;;;;;;;;;;;;;;;;5106344;28;19932;-53
2023/12/13 05:29:39;;;;;;;;;;;;;;;;;;5105459;28;19955;-50
2023/12/13 05:32:06;;;;;;;;;;;;;;;;;;5104729;28;20036;-51
2023/12/13 05:34:32;;;;;;;;;;;;;;;;;;5105057;28;20290;-51
2023/12/13 05:36:59;;;;;;;;;;;;;;;;;;5106035;28;20276;-51
2023/12/13 05:39:25;;;;;;;;;;;;;;;;;;5106112;28;20028;-50
2023/12/13 05:41:51;;;;;;;;;;;;;;;;;;5106385;28;19986;-51
2023/12/13 05:44:22;;;;;;;;;;;;;;;;;;5104727;28;21288;-50
2023/12/13 05:46:48;;;;;;;;;;;;;;;;;;5109838;28;19955;-51
2023/12/13 05:49:15;;;;;;;;;;;;;;;;;;5110025;28;19923;-51
2023/12/13 05:51:41;;;;;;;;;;;;;;;;;;5110128;28;19971;-51
2023/12/13 05:54:07;;;;;;;;;;;;;;;;;;5109045;28;19928;-52
2023/12/13 05:56:34;;;;;;;;;;;;;;;;;;5109230;28;19967;-51
2023/12/13 05:59:00;;;;;;;;;;;;;;;;;;5109726;28;19923;-51
2023/12/13 06:01:26;;;;;;;;;;;;;;;;;;5105661;28;20379;-52
2023/12/13 06:03:52;;;;;;;;;;;;;;;;;;5108727;28;20351;-52
2023/12/13 06:06:19;;;;;;;;;;;;;;;;;;5107559;28;19936;-52
2023/12/13 06:08:45;;;;;;;;;;;;;;;;;;5107252;28;20365;-51
2023/12/13 06:11:11;;;;;;;;;;;;;;;;;;5108959;28;20623;-52
2023/12/13 06:13:38;;;;;;;;;;;;;;;;;;5107552;28;19973;-51
2023/12/13 06:16:05;;;;;;;;;;;;;;;;;;5107665;28;19931;-51
2023/12/13 06:18:32;;;;;;;;;;;;;;;;;;5109535;28;19932;-52
2023/12/13 06:20:58;;;;;;;;;;;;;;;;;;5106815;28;19930;-52
2023/12/13 06:23:24;;;;;;;;;;;;;;;;;;5108905;28;20373;-52
2023/12/13 06:25:50;;;;;;;;;;;;;;;;;;5108048;28;19923;-52
2023/12/13 06:28:16;;;;;;;;;;;;;;;;;;5108524;28;19934;-52
2023/12/13 06:30:42;;;;;;;;;;;;;;;;;;5106498;28;20022;-52
2023/12/13 06:33:09;;;;;;;;;;;;;;;;;;5107754;28;19931;-52
2023/12/13 06:35:36;;;;;;;;;;;;;;;;;;5107122;28;19936;-51
2023/12/13 06:38:02;;;;;;;;;;;;;;;;;;5100771;28;19996;-51
2023/12/13 06:40:28;;;;;;;;;;;;;;;;;;5097272;28;19981;-52
2023/12/13 06:42:54;;;;;;;;;;;;;;;;;;5099946;28;19939;-52
2023/12/13 06:45:21;;;;;;;;;;;;;;;;;;5103175;28;20016;-50
2023/12/13 06:47:48;;;;;;;;;;;;;;;;;;5094051;28;20390;-52
2023/12/13 06:50:14;;;;;;;;;;;;;;;;;;5092677;28;19932;-51
2023/12/13 06:52:40;;;;;;;;;;;;;;;;;;5097092;28;19953;-52
2023/12/13 06:55:07;;;;;;;;;;;;;;;;;;5093601;28;20411;-52
2023/12/13 06:57:33;;;;;;;;;;;;;;;;;;5106565;28;20452;-51
2023/12/13 06:59:59;;;;;;;;;;;;;;;;;;5105082;28;20364;-51
2023/12/13 07:02:26;;;;;;;;;;;;;;;;;;5096005;28;20363;-50
2023/12/13 07:04:52;;;;;;;;;;;;;;;;;;5097623;28;20375;-52
2023/12/13 07:07:18;;;;;;;;;;;;;;;;;;5099525;28;20022;-52
2023/12/13 07:09:45;;;;;;;;;;;;;;;;;;5096234;28;19931;-51
2023/12/13 07:12:11;;;;;;;;;;;;;;;;;;5099131;28;19932;-52
2023/12/13 07:14:37;;;;;;;;;;;;;;;;;;5099538;28;20000;-51
2023/12/13 07:17:04;;;;;;;;;;;;;;;;;;5095634;28;19924;-52
2023/12/13 07:19:30;;;;;;;;;;;;;;;;;;5095807;28;19931;-52
2023/12/13 07:21:56;;;;;;;;;;;;;;;;;;5095738;28;19938;-51
2023/12/13 07:24:22;;;;;;;;;;;;;;;;;;5095857;28;19935;-49
2023/12/13 07:26:48;;;;;;;;;;;;;;;;;;5093943;28;19959;-51
2023/12/13 07:29:14;;;;;;;;;;;;;;;;;;5094797;28;19992;-50
2023/12/13 07:31:41;;;;;;;;;;;;;;;;;;5093894;28;19956;-51
2023/12/13 07:34:07;;;;;;;;;;;;;;;;;;5097901;28;19932;-52
2023/12/13 07:36:33;;;;;;;;;;;;;;;;;;5100716;28;20004;-49
2023/12/13 07:38:59;;;;;;;;;;;;;;;;;;5100065;28;20042;-50
2023/12/13 07:41:26;;;;;;;;;;;;;;;;;;5099122;28;20407;-50
2023/12/13 07:43:52;;;;;;;;;;;;;;;;;;5101594;28;19975;-52
2023/12/13 07:46:18;;;;;;;;;;;;;;;;;;5101451;28;19932;-53
2023/12/13 07:48:44;;;;;;;;;;;;;;;;;;5100777;28;19941;-52
2023/12/13 07:57:24;;;;;;;;;;;;;;;;;;5105237;28;19927;-52
2023/12/13 07:59:50;;;;;;;;;;;;;;;;;;5103777;28;19984;-51
2023/12/13 08:02:20;;;;;;;;;;;;;;;;;;5099781;28;20338;-50
2023/12/13 08:04:46;;;;;;;;;;;;;;;;;;5092839;28;19935;-52
2023/12/13 08:07:12;;;;;;;;;;;;;;;;;;5096930;27;19932;-49
2023/12/13 08:09:38;;;;;;;;;;;;;;;;;;5090747;28;19924;-52
2023/12/13 08:12:05;;;;;;;;;;;;;;;;;;5089958;28;19931;-51
2023/12/13 08:14:32;;;;;;;;;;;;;;;;;;5094741;28;19939;-51
2023/12/13 08:17:00;;;;;;;;;;;;;;;;;;5098264;28;19923;-50
2023/12/13 08:19:28;;;;;;;;;;;;;;;;;;5091726;28;19924;-50
2023/12/13 08:21:54;;;;;;;;;;;;;;;;;;5099450;28;19935;-50
2023/12/13 08:24:21;;;;;;;;;;;;;;;;;;5097994;28;20158;-52
2023/12/13 08:26:47;;;;;;;;;;;;;;;;;;5096876;28;20253;-53
2023/12/13 08:29:13;;;;;;;;;;;;;;;;;;5099755;27;20000;-50
2023/12/13 08:31:39;;;;;;;;;;;;;;;;;;5101890;28;20132;-51
2023/12/13 08:34:06;;;;;;;;;;;;;;;;;;5103929;28;19928;-52
2023/12/13 08:36:32;;;;;;;;;;;;;;;;;;5103766;27;19935;-49
2023/12/13 08:38:58;;;;;;;;;;;;;;;;;;5104736;28;20454;-54
2023/12/13 08:41:25;;;;;;;;;;;;;;;;;;5103080;28;20463;-54
2023/12/13 08:43:51;;;;;;;;;;;;;;;;;;5103310;28;19924;-53
2023/12/13 08:46:17;;;;;;;;;;;;;;;;;;5089500;28;20401;-49
2023/12/13 08:48:45;;;;;;;;;;;;;;;;;;5090453;28;19932;-50
2023/12/13 08:51:12;;;;;;;;;;;;;;;;;;5092137;28;19959;-52
2023/12/13 08:53:38;;;;;;;;;;;;;;;;;;5093577;28;20306;-53
2023/12/13 08:56:04;;;;;;;;;;;;;;;;;;5095780;28;20379;-51
2023/12/13 08:58:31;;;;;;;;;;;;;;;;;;5097528;28;20287;-50
2023/12/13 09:00:58;;;;;;;;;;;;;;;;;;5090975;28;19938;-52
2023/12/13 09:03:25;;;;;;;;;;;;;;;;;;5091695;28;20306;-54
2023/12/13 09:05:51;;;;;;;;;;;;;;;;;;5089360;28;19932;-50
2023/12/13 09:08:18;;;;;;;;;;;;;;;;;;5094745;28;19923;-53
2023/12/13 09:10:44;;;;;;;;;;;;;;;;;;5089570;28;20443;-51
2023/12/13 09:13:10;;;;;;;;;;;;;;;;;;5089455;28;19964;-54
2023/12/13 09:15:36;;;;;;;;;;;;;;;;;;5092577;28;20017;-52
2023/12/13 09:18:03;;;;;;;;;;;;;;;;;;5088961;28;20027;-51
2023/12/13 09:20:29;;;;;;;;;;;;;;;;;;5102911;28;19924;-53
2023/12/13 09:22:55;;;;;;;;;;;;;;;;;;5103705;28;19930;-52
2023/12/13 09:25:21;;;;;;;;;;;;;;;;;;5099191;28;19935;-54
2023/12/13 09:27:48;;;;;;;;;;;;;;;;;;5101292;28;19932;-51
2023/12/13 09:30:14;;;;;;;;;;;;;;;;;;5096565;28;19937;-54
2023/12/13 09:32:41;;;;;;;;;;;;;;;;;;5092029;28;19924;-51
2023/12/13 09:35:09;;;;;;;;;;;;;;;;;;5099635;28;19938;-51
2023/12/13 09:37:35;;;;;;;;;;;;;;;;;;5090949;28;19954;-53
2023/12/13 09:40:02;;;;;;;;;;;;;;;;;;5097106;28;19932;-56
2023/12/13 09:42:29;;;;;;;;;;;;;;;;;;5103223;28;19931;-54
2023/12/13 09:44:55;;;;;;;;;;;;;;;;;;5103247;28;20200;-53
2023/12/13 09:47:23;;;;;;;;;;;;;;;;;;5104503;28;19932;-54
2023/12/13 09:49:49;;;;;;;;;;;;;;;;;;5108237;28;20445;-54
2023/12/13 09:52:16;;;;;;;;;;;;;;;;;;5092171;28;19928;-56
2023/12/13 09:54:44;;;;;;;;;;;;;;;;;;5097392;28;19924;-52
2023/12/13 09:57:11;;;;;;;;;;;;;;;;;;5097072;28;19939;-52
2023/12/13 09:59:38;;;;;;;;;;;;;;;;;;5029022;28;20360;-52
2023/12/13 10:02:04;;;;;;;;;;;;;;;;;;5026435;28;19933;-53
2023/12/13 10:04:30;;;;;;;;;;;;;;;;;;5027116;28;20466;-54
2023/12/13 10:06:56;;;;;;;;;;;;;;;;;;5024138;28;19933;-54
2023/12/13 10:09:22;;;;;;;;;;;;;;;;;;5024685;28;19995;-54
2023/12/13 10:11:49;;;;;;;;;;;;;;;;;;5032267;28;19929;-53
2023/12/13 10:14:15;;;;;;;;;;;;;;;;;;5025327;28;19925;-52
2023/12/13 10:16:41;;;;;;;;;;;;;;;;;;5031122;28;19974;-52
2023/12/13 10:19:07;;;;;;;;;;;;;;;;;;5098150;28;20399;-53
2023/12/13 10:21:34;;;;;;;;;;;;;;;;;;5099866;28;19942;-52
2023/12/13 10:24:00;;;;;;;;;;;;;;;;;;5102531;28;19985;-49
2023/12/13 10:26:26;;;;;;;;;;;;;;;;;;5095847;28;20927;-50
2023/12/13 10:28:52;;;;;;;;;;;;;;;;;;5101215;28;20241;-53
2023/12/13 10:31:18;;;;;;;;;;;;;;;;;;5097155;28;19927;-52
2023/12/13 10:33:45;;;;;;;;;;;;;;;;;;5099889;28;19928;-54
2023/12/13 10:36:11;;;;;;;;;;;;;;;;;;5099105;28;19924;-51
2023/12/13 10:38:37;;;;;;;;;;;;;;;;;;5100512;28;21241;-54
2023/12/13 10:41:04;;;;;;;;;;;;;;;;;;5094054;27;19958;-54
2023/12/13 10:43:30;;;;;;;;;;;;;;;;;;5096653;28;19927;-53
2023/12/13 10:45:56;;;;;;;;;;;;;;;;;;5093844;28;19972;-52
2023/12/13 10:48:22;;;;;;;;;;;;;;;;;;5090660;28;19928;-50
2023/12/13 10:50:48;;;;;;;;;;;;;;;;;;5090988;28;20024;-53
2023/12/13 10:53:16;;;;;;;;;;;;;;;;;;5090908;28;20383;-51
2023/12/13 10:55:42;;;;;;;;;;;;;;;;;;5035874;28;20478;-52
2023/12/13 10:58:08;;;;;;;;;;;;;;;;;;5034204;28;19933;-51
2023/12/13 11:00:35;;;;;;;;;;;;;;;;;;5028195;28;20119;-51
2023/12/13 11:03:02;;;;;;;;;;;;;;;;;;5028903;28;19932;-53
2023/12/13 11:05:28;;;;;;;;;;;;;;;;;;5024971;28;19933;-51
2023/12/13 11:07:54;;;;;;;;;;;;;;;;;;5018451;28;20449;-54
2023/12/13 11:10:22;;;;;;;;;;;;;;;;;;5024796;28;19939;-52
2023/12/13 11:12:49;;;;;;;;;;;;;;;;;;5027915;28;20408;-49
2023/12/13 11:15:15;;;;;;;;;;;;;;;;;;5088300;28;19931;-50
2023/12/13 11:17:41;;;;;;;;;;;;;;;;;;5091424;28;20036;-50
2023/12/13 11:20:09;;;;;;;;;;;;;;;;;;5104437;28;19928;-53
2023/12/13 11:22:35;;;;;;;;;;;;;;;;;;5100078;28;20341;-53
2023/12/13 11:25:03;;;;;;;;;;;;;;;;;;5104829;28;19935;-53
2023/12/13 11:27:29;;;;;;;;;;;;;;;;;;5101185;28;19928;-53
2023/12/13 11:29:55;;;;;;;;;;;;;;;;;;5091955;27;20376;-52
2023/12/13 11:32:21;;;;;;;;;;;;;;;;;;5093005;28;20620;-54
2023/12/13 11:34:48;;;;;;;;;;;;;;;;;;5096940;28;19932;-51
2023/12/13 11:37:14;;;;;;;;;;;;;;;;;;5099439;28;19923;-52
2023/12/13 11:39:40;;;;;;;;;;;;;;;;;;5098347;28;20388;-52
2023/12/13 11:42:07;;;;;;;;;;;;;;;;;;5091787;27;19931;-53
2023/12/13 11:44:34;;;;;;;;;;;;;;;;;;5093706;28;19955;-52
2023/12/13 11:47:00;;;;;;;;;;;;;;;;;;5095579;28;19924;-53
2023/12/13 11:49:26;;;;;;;;;;;;;;;;;;5090710;28;20279;-52
2023/12/13 11:51:53;;;;;;;;;;;;;;;;;;5095598;28;19969;-51
2023/12/13 11:54:19;;;;;;;;;;;;;;;;;;5098396;28;19931;-51
2023/12/13 11:56:45;;;;;;;;;;;;;;;;;;5093144;28;19928;-52
2023/12/13 11:59:12;;;;;;;;;;;;;;;;;;5100851;28;19928;-53
2023/12/13 12:01:38;;;;;;;;;;;;;;;;;;5090388;28;19931;-51
2023/12/13 12:04:04;;;;;;;;;;;;;;;;;;5089971;28;19936;-52
2023/12/13 12:06:30;;;;;;;;;;;;;;;;;;5094887;28;19932;-52
2023/12/13 12:08:56;;;;;;;;;;;;;;;;;;5098635;28;19923;-51
2023/12/13 12:11:23;;;;;;;;;;;;;;;;;;5096116;28;20015;-51
2023/12/13 12:13:51;;;;;;;;;;;;;;;;;;5098808;28;19967;-50
2023/12/13 12:16:17;;;;;;;;;;;;;;;;;;5095453;28;19931;-52
2023/12/13 12:18:44;;;;;;;;;;;;;;;;;;5100432;28;20323;-51
2023/12/13 12:21:10;;;;;;;;;;;;;;;;;;5095005;28;20082;-54
2023/12/13 12:23:36;;;;;;;;;;;;;;;;;;5098164;28;19931;-52
2023/12/13 12:26:03;;;;;;;;;;;;;;;;;;5090718;28;20361;-49
2023/12/13 12:28:29;;;;;;;;;;;;;;;;;;5090899;28;19935;-48
2023/12/13 12:30:55;;;;;;;;;;;;;;;;;;5092389;28;19932;-53
2023/12/13 12:33:21;;;;;;;;;;;;;;;;;;5094859;28;19923;-51
2023/12/13 12:35:48;;;;;;;;;;;;;;;;;;5093565;28;19981;-55
2023/12/13 12:38:14;;;;;;;;;;;;;;;;;;5089506;28;20142;-51
2023/12/13 12:40:42;;;;;;;;;;;;;;;;;;5094300;28;19977;-51
2023/12/13 12:43:08;;;;;;;;;;;;;;;;;;5086310;28;19932;-53
2023/12/13 12:45:37;;;;;;;;;;;;;;;;;;5082512;28;19932;-52
2023/12/13 12:48:03;;;;;;;;;;;;;;;;;;5083860;28;20020;-53
2023/12/13 12:50:29;;;;;;;;;;;;;;;;;;5085308;28;20031;-53
2023/12/13 12:52:55;;;;;;;;;;;;;;;;;;5084594;28;19935;-53
2023/12/13 12:55:22;;;;;;;;;;;;;;;;;;5085144;28;20415;-51
2023/12/13 12:57:49;;;;;;;;;;;;;;;;;;5085021;28;19938;-53
2023/12/13 13:00:17;;;;;;;;;;;;;;;;;;5082907;28;19991;-53
2023/12/13 13:02:43;;;;;;;;;;;;;;;;;;5088907;28;20679;-49
2023/12/13 13:05:09;;;;;;;;;;;;;;;;;;5087323;28;19928;-50
2023/12/13 13:07:36;;;;;;;;;;;;;;;;;;5088939;28;20377;-51
2023/12/13 13:10:05;;;;;;;;;;;;;;;;;;5086496;28;19932;-49
2023/12/13 13:12:31;;;;;;;;;;;;;;;;;;5084790;28;19942;-50
2023/12/13 13:14:57;;;;;;;;;;;;;;;;;;5083957;28;20391;-47
2023/12/13 13:17:24;;;;;;;;;;;;;;;;;;5090790;28;19932;-49
2023/12/13 13:19:51;;;;;;;;;;;;;;;;;;5093507;28;19939;-48
2023/12/13 13:22:17;;;;;;;;;;;;;;;;;;5090444;28;19931;-48
2023/12/13 13:24:50;;;;;;;;;;;;;;;;;;5087735;28;19939;-48
2023/12/13 13:27:16;;;;;;;;;;;;;;;;;;5088534;28;20004;-51
2023/12/13 13:29:47;;;;;;;;;;;;;;;;;;5087549;28;19935;-51
2023/12/13 13:32:13;;;;;;;;;;;;;;;;;;5086869;28;19927;-50
2023/12/13 13:34:40;;;;;;;;;;;;;;;;;;5044827;28;20416;-49
2023/12/13 13:37:06;;;;;;;;;;;;;;;;;;5034831;28;21004;-50
2023/12/13 13:39:32;;;;;;;;;;;;;;;;;;5039855;28;19967;-51
2023/12/13 13:41:58;;;;;;;;;;;;;;;;;;5044009;28;19968;-51
2023/12/13 13:44:25;;;;;;;;;;;;;;;;;;5000037;28;19937;-49
2023/12/13 13:46:51;;;;;;;;;;;;;;;;;;5006778;28;19936;-52
2023/12/13 13:49:18;;;;;;;;;;;;;;;;;;5001918;28;20373;-52
2023/12/13 13:51:45;;;;;;;;;;;;;;;;;;5003259;28;20060;-52
2023/12/13 13:54:11;;;;;;;;;;;;;;;;;;5040175;28;20458;-52
2023/12/13 13:56:37;;;;;;;;;;;;;;;;;;5043930;28;20555;-51
2023/12/13 13:59:04;;;;;;;;;;;;;;;;;;5044069;28;20392;-51
2023/12/13 14:01:31;;;;;;;;;;;;;;;;;;5045179;28;20320;-49
2023/12/13 14:03:59;;;;;;;;;;;;;;;;;;5087223;28;20039;-51
2023/12/13 14:06:26;;;;;;;;;;;;;;;;;;5089560;28;19931;-50
2023/12/13 14:08:52;;;;;;;;;;;;;;;;;;5091565;28;20044;-50
2023/12/13 14:11:18;;;;;;;;;;;;;;;;;;5087313;28;20620;-50
2023/12/13 14:13:44;;;;;;;;;;;;;;;;;;5090434;28;20001;-49
2023/12/13 14:16:11;;;;;;;;;;;;;;;;;;5089781;27;19940;-48
2023/12/13 14:18:37;;;;;;;;;;;;;;;;;;5090902;28;20005;-51
2023/12/13 14:21:03;;;;;;;;;;;;;;;;;;5090847;28;19927;-49
2023/12/13 14:23:29;;;;;;;;;;;;;;;;;;5090237;28;20369;-51
2023/12/13 14:25:56;;;;;;;;;;;;;;;;;;5093113;28;19996;-49
2023/12/13 14:28:22;;;;;;;;;;;;;;;;;;5092087;28;19932;-50
2023/12/13 14:30:48;;;;;;;;;;;;;;;;;;5104039;28;20442;-50
2023/12/13 14:33:15;;;;;;;;;;;;;;;;;;5106636;28;20339;-49
2023/12/13 14:35:41;;;;;;;;;;;;;;;;;;5107490;28;19924;-47
2023/12/13 14:38:08;;;;;;;;;;;;;;;;;;5102227;28;20317;-50
2023/12/13 14:40:34;;;;;;;;;;;;;;;;;;5102772;28;19923;-49
2023/12/13 14:43:00;;;;;;;;;;;;;;;;;;5108324;28;19969;-46
2023/12/13 14:45:27;;;;;;;;;;;;;;;;;;5107450;28;20311;-49
2023/12/13 14:47:53;;;;;;;;;;;;;;;;;;5107151;28;19931;-51
2023/12/13 14:50:19;;;;;;;;;;;;;;;;;;5107100;28;20072;-52
2023/12/13 14:52:46;;;;;;;;;;;;;;;;;;5108052;28;19931;-48
2023/12/13 14:55:12;;;;;;;;;;;;;;;;;;5108955;28;19924;-47
2023/12/13 14:57:38;;;;;;;;;;;;;;;;;;5108668;28;19976;-49
2023/12/13 15:00:04;;;;;;;;;;;;;;;;;;5108631;28;19932;-50
2023/12/13 15:02:34;;;;;;;;;;;;;;;;;;5106631;28;19928;-49
2023/12/13 15:05:00;;;;;;;;;;;;;;;;;;5108961;28;19971;-50
2023/12/13 15:07:26;;;;;;;;;;;;;;;;;;5106698;28;19935;-50
2023/12/13 15:09:53;;;;;;;;;;;;;;;;;;5107631;28;19931;-49
2023/12/13 15:12:19;;;;;;;;;;;;;;;;;;5108130;27;19927;-53
2023/12/13 15:14:45;;;;;;;;;;;;;;;;;;5107877;28;19928;-52
2023/12/13 15:17:11;;;;;;;;;;;;;;;;;;5107900;28;20059;-51
2023/12/13 15:19:38;;;;;;;;;;;;;;;;;;5106729;28;19928;-51
2023/12/13 15:22:05;;;;;;;;;;;;;;;;;;5107833;28;20362;-54
2023/12/13 15:24:31;;;;;;;;;;;;;;;;;;5107893;28;20388;-50
2023/12/13 15:26:57;;;;;;;;;;;;;;;;;;5106977;28;19976;-49
2023/12/13 15:29:23;;;;;;;;;;;;;;;;;;5107430;28;19955;-51
2023/12/13 15:31:50;;;;;;;;;;;;;;;;;;5107044;28;20284;-48
2023/12/13 15:34:16;;;;;;;;;;;;;;;;;;5107912;28;19930;-50
2023/12/13 15:36:43;;;;;;;;;;;;;;;;;;5106881;28;20243;-49
2023/12/13 15:39:12;;;;;;;;;;;;;;;;;;5106526;28;19932;-49
2023/12/13 15:41:38;;;;;;;;;;;;;;;;;;5106914;28;20196;-50
2023/12/13 15:44:06;;;;;;;;;;;;;;;;;;5107414;28;19962;-49
2023/12/13 15:46:33;;;;;;;;;;;;;;;;;;5106634;28;19931;-49
2023/12/13 15:48:59;;;;;;;;;;;;;;;;;;5105945;28;20359;-49
2023/12/13 15:51:29;;;;;;;;;;;;;;;;;;5106127;28;19923;-50
2023/12/13 15:53:55;;;;;;;;;;;;;;;;;;5106158;28;19993;-50
2023/12/13 15:56:21;;;;;;;;;;;;;;;;;;5107820;28;20012;-47
2023/12/13 15:58:47;;;;;;;;;;;;;;;;;;5107607;28;19935;-50
2023/12/13 16:01:13;;;;;;;;;;;;;;;;;;5107324;28;19938;-51
2023/12/13 16:03:40;;;;;;;;;;;;;;;;;;5108027;28;19931;-51
2023/12/13 16:06:06;;;;;;;;;;;;;;;;;;5107696;28;19924;-50
2023/12/13 16:08:33;;;;;;;;;;;;;;;;;;5106868;28;20356;-50
2023/12/13 16:11:07;;;;;;;;;;;;;;;;;;5107568;28;19968;-50
2023/12/13 16:13:33;;;;;;;;;;;;;;;;;;5105606;28;19970;-49
2023/12/13 16:15:59;;;;;;;;;;;;;;;;;;5107443;28;19932;-49
2023/12/13 16:18:25;;;;;;;;;;;;;;;;;;5106996;28;19928;-51
2023/12/13 16:20:52;;;;;;;;;;;;;;;;;;5107333;28;20306;-51
2023/12/13 16:23:18;;;;;;;;;;;;;;;;;;5107763;28;19971;-51
2023/12/13 16:25:44;;;;;;;;;;;;;;;;;;5107351;28;20403;-50
2023/12/13 16:28:10;;;;;;;;;;;;;;;;;;5106765;28;19924;-51
2023/12/13 16:30:36;;;;;;;;;;;;;;;;;;5105920;28;19927;-50
2023/12/13 16:33:03;;;;;;;;;;;;;;;;;;5107235;28;19927;-51
2023/12/13 16:35:29;;;;;;;;;;;;;;;;;;5107184;28;19931;-47
2023/12/13 16:37:55;;;;;;;;;;;;;;;;;;5107071;28;19967;-50
2023/12/13 16:40:21;;;;;;;;;;;;;;;;;;5106776;28;20307;-50
2023/12/13 16:42:47;;;;;;;;;;;;;;;;;;5106898;28;20279;-49
2023/12/13 16:45:14;;;;;;;;;;;;;;;;;;5105284;28;19924;-49